createdAt,value
2022-10-05T00:00:00.838Z,11.30
2022-10-05T00:02:27.453Z,11.16
2022-10-05T00:04:56.625Z,11.10
2022-10-05T00:07:24.723Z,11.03
2022-10-05T00:09:57.387Z,11.00
2022-10-05T00:12:26.085Z,10.98
2022-10-05T00:14:59.219Z,10.85
2022-10-05T00:17:29.202Z,10.80
2022-10-05T00:19:55.862Z,10.78
2022-10-05T00:22:34.758Z,10.80
2022-10-05T00:25:11.225Z,10.81
2022-10-05T00:27:40.646Z,10.43
2022-10-05T00:30:18.971Z,10.82
2022-10-05T00:32:47.555Z,10.80
2022-10-05T00:35:15.823Z,10.77
2022-10-05T00:37:43.736Z,10.73
2022-10-05T00:40:46.276Z,10.69
2022-10-05T00:43:49.903Z,10.60
2022-10-05T00:46:24.672Z,10.47
2022-10-05T00:49:09.698Z,10.46
2022-10-05T00:51:38.797Z,10.35
2022-10-05T00:54:34.449Z,10.45
2022-10-05T00:57:34.175Z,10.41
2022-10-05T01:00:13.462Z,10.39
2022-10-05T01:02:56.365Z,10.41
2022-10-05T01:05:53.860Z,10.44
2022-10-05T01:08:44.819Z,10.37
2022-10-05T01:11:25.216Z,10.47
2022-10-05T01:14:02.996Z,10.44
2022-10-05T01:16:47.884Z,10.36
2022-10-05T01:20:13.843Z,10.36
2022-10-05T01:22:58.248Z,10.36
2022-10-05T01:25:25.013Z,10.36
2022-10-05T01:28:19.133Z,10.35
2022-10-05T01:31:24.159Z,10.21
2022-10-05T01:34:13.332Z,10.18
2022-10-05T01:36:49.366Z,10.16
2022-10-05T01:39:27.658Z,10.18
2022-10-05T01:42:15.793Z,10.17
2022-10-05T01:44:57.884Z,10.14
2022-10-05T01:47:44.762Z,10.08
2022-10-05T01:50:29.234Z,10.00
2022-10-05T01:53:15.645Z,10.06
2022-10-05T01:56:01.670Z,10.03
2022-10-05T01:59:16.441Z,9.98
2022-10-05T02:02:03.296Z,9.89
2022-10-05T02:05:00.900Z,9.79
2022-10-05T02:07:36.736Z,9.87
2022-10-05T02:10:14.717Z,9.74
2022-10-05T02:12:44.767Z,9.70
2022-10-05T02:15:19.762Z,9.76
2022-10-05T02:17:49.521Z,9.77
2022-10-05T02:20:24.998Z,9.69
2022-10-05T02:22:54.949Z,9.69
2022-10-05T02:25:26.922Z,9.79
2022-10-05T02:28:01.389Z,9.70
2022-10-05T02:30:29.743Z,9.70
2022-10-05T02:33:08.499Z,9.73
2022-10-05T02:35:35.145Z,9.76
2022-10-05T02:38:40.083Z,9.75
2022-10-05T02:41:20.802Z,9.77
2022-10-05T02:43:53.432Z,9.69
2022-10-05T02:46:29.750Z,9.55
2022-10-05T02:49:14.651Z,9.41
2022-10-05T02:51:56.324Z,9.46
2022-10-05T02:54:42.633Z,9.50
2022-10-05T02:57:10.033Z,9.47
2022-10-05T02:59:48.004Z,9.32
2022-10-05T03:02:36.494Z,9.37
2022-10-05T03:05:41.881Z,9.27
2022-10-05T03:08:25.229Z,9.42
2022-10-05T03:11:16.496Z,9.47
2022-10-05T03:14:14.165Z,9.44
2022-10-05T03:17:02.587Z,9.39
2022-10-05T03:19:51.115Z,9.36
2022-10-05T03:22:27.807Z,9.27
2022-10-05T03:24:55.212Z,9.43
2022-10-05T03:27:51.063Z,9.49
2022-10-05T03:30:26.202Z,9.51
2022-10-05T03:33:06.457Z,9.47
2022-10-05T03:36:06.184Z,9.60
2022-10-05T03:38:47.768Z,9.51
2022-10-05T03:41:59.255Z,9.49
2022-10-05T03:44:50.499Z,9.53
2022-10-05T03:48:01.094Z,9.64
2022-10-05T03:51:14.845Z,9.73
2022-10-05T03:54:05.008Z,9.72
2022-10-05T03:56:47.529Z,9.63
2022-10-05T03:59:18.682Z,9.85
2022-10-05T04:02:09.329Z,9.28
2022-10-05T04:05:14.527Z,9.90
2022-10-05T04:07:49.919Z,9.85
2022-10-05T04:10:33.747Z,9.77
2022-10-05T04:13:10.633Z,9.71
2022-10-05T04:15:46.358Z,9.56
2022-10-05T04:18:40.325Z,9.78
2022-10-05T04:21:14.386Z,9.77
2022-10-05T04:23:58.577Z,9.86
2022-10-05T04:26:35.285Z,9.85
2022-10-05T04:29:17.268Z,9.73
2022-10-05T04:32:18.080Z,9.79
2022-10-05T04:35:02.612Z,9.26
2022-10-05T04:37:56.740Z,9.78
2022-10-05T04:40:39.443Z,9.77
2022-10-05T04:43:44.072Z,9.88
2022-10-05T04:46:29.368Z,9.94
2022-10-05T04:49:08.733Z,9.91
2022-10-05T04:51:57.031Z,9.84
2022-10-05T04:54:34.352Z,9.79
2022-10-05T04:57:10.670Z,9.73
2022-10-05T05:00:00.353Z,9.71
2022-10-05T05:02:37.633Z,9.71
2022-10-05T05:05:07.119Z,9.79
2022-10-05T05:07:54.067Z,9.83
2022-10-05T05:10:26.599Z,9.86
2022-10-05T05:13:40.857Z,9.98
2022-10-05T05:16:23.242Z,9.98
2022-10-05T05:19:01.886Z,9.96
2022-10-05T05:21:41.086Z,9.96
2022-10-05T05:24:53.652Z,9.96
2022-10-05T05:27:26.403Z,10.00
2022-10-05T05:30:02.363Z,9.93
2022-10-05T05:33:08.346Z,9.89
2022-10-05T05:39:06.373Z,9.86
2022-10-05T05:41:53.733Z,9.86
2022-10-05T06:02:18.104Z,10.09
2022-10-05T06:05:01.565Z,10.15
2022-10-05T06:07:33.249Z,10.10
2022-10-05T06:10:34.622Z,10.22
2022-10-05T06:13:08.407Z,10.20
2022-10-05T06:15:43.892Z,10.29
2022-10-05T06:18:20.522Z,10.32
2022-10-05T06:20:53.249Z,10.28
2022-10-05T06:23:30.036Z,10.19
2022-10-05T17:09:43.216Z,8.37
2022-10-05T17:12:37.686Z,8.52
2022-10-05T17:15:42.076Z,8.65
2022-10-05T17:18:30.329Z,8.75
2022-10-05T17:21:08.795Z,8.83
2022-10-05T17:23:40.977Z,8.91
2022-10-05T17:26:13.808Z,8.97
2022-10-05T17:29:11.272Z,9.02
2022-10-05T17:32:03.481Z,9.07
2022-10-05T17:34:34.359Z,8.99
2022-10-05T17:37:21.602Z,9.06
2022-10-05T17:39:50.942Z,9.06
2022-10-05T17:42:45.444Z,9.13
2022-10-05T17:45:14.805Z,9.19
2022-10-05T17:48:05.030Z,9.17
2022-10-05T17:51:04.983Z,9.18
2022-10-05T17:53:52.783Z,9.17
2022-10-05T17:56:22.126Z,9.03
2022-10-05T17:59:08.224Z,9.23
2022-10-05T18:01:39.309Z,9.08
2022-10-05T18:04:11.812Z,9.24
2022-10-05T18:06:38.947Z,9.21
2022-10-05T18:09:19.971Z,9.20
2022-10-05T18:12:17.143Z,9.25
2022-10-05T18:14:57.163Z,9.29
2022-10-05T18:17:48.444Z,9.26
2022-10-05T18:20:24.188Z,9.24
2022-10-05T18:22:53.475Z,9.27
2022-10-05T18:25:34.123Z,9.27
2022-10-05T18:28:40.846Z,9.27
2022-10-05T18:31:39.360Z,9.24
2022-10-05T18:34:31.316Z,8.96
2022-10-05T18:37:01.364Z,9.23
2022-10-05T18:39:30.384Z,9.26
2022-10-05T18:42:27.590Z,9.23
2022-10-05T18:45:12.128Z,9.18
2022-10-05T18:48:06.862Z,9.10
2022-10-05T18:50:38.968Z,9.15
2022-10-05T18:53:30.280Z,9.16
2022-10-05T18:56:18.219Z,9.16
2022-10-05T18:59:08.227Z,9.11
2022-10-05T19:02:16.737Z,9.27
2022-10-05T19:04:46.512Z,9.27
2022-10-05T19:07:20.146Z,9.31
2022-10-05T19:10:19.626Z,9.35
2022-10-05T19:13:10.984Z,9.24
2022-10-05T19:16:03.806Z,9.27
2022-10-05T19:18:55.316Z,9.20
2022-10-05T19:21:40.992Z,9.21
2022-10-05T19:24:31.859Z,9.25
2022-10-05T19:27:02.246Z,9.16
2022-10-05T19:29:40.454Z,9.12
2022-10-05T19:32:34.311Z,9.05
2022-10-05T19:35:23.878Z,9.10
2022-10-05T19:38:15.892Z,9.07
2022-10-05T19:40:54.375Z,9.06
2022-10-05T19:43:53.692Z,9.04
2022-10-05T19:46:27.509Z,8.96
2022-10-05T19:48:54.584Z,8.97
2022-10-05T19:51:25.410Z,8.99
2022-10-05T19:53:56.051Z,8.86
2022-10-05T19:56:30.968Z,8.96
2022-10-05T19:59:04.400Z,8.98
2022-10-05T20:01:36.940Z,8.90
2022-10-05T20:04:05.124Z,8.97
2022-10-05T20:06:31.764Z,8.93
2022-10-05T20:09:04.693Z,8.91
2022-10-05T20:11:32.393Z,8.88
2022-10-05T20:14:01.564Z,8.91
2022-10-05T20:16:51.142Z,8.86
2022-10-05T20:19:57.365Z,8.81
2022-10-05T20:22:35.418Z,8.82
2022-10-05T20:25:06.835Z,8.68
2022-10-05T20:27:42.507Z,8.81
2022-10-05T20:30:12.339Z,8.77
2022-10-05T20:32:38.895Z,8.76
2022-10-05T20:35:07.236Z,8.68
2022-10-05T20:37:34.008Z,8.74
2022-10-05T20:40:00.563Z,8.75
2022-10-05T20:42:27.162Z,8.73
2022-10-05T20:44:56.835Z,8.68
2022-10-05T20:47:24.478Z,8.28
2022-10-05T20:49:52.727Z,8.66
2022-10-05T20:52:19.282Z,8.65
2022-10-05T20:57:21.171Z,8.54
2022-10-05T20:59:47.909Z,8.52
2022-10-05T21:02:14.484Z,8.49
2022-10-05T21:04:47.516Z,8.41
2022-10-05T21:07:16.821Z,8.15
2022-10-05T21:09:44.745Z,8.39
2022-10-05T21:12:12.246Z,8.41
2022-10-05T21:14:38.911Z,8.42
2022-10-05T21:17:06.785Z,8.41
2022-10-05T21:19:40.580Z,8.42
2022-10-05T21:22:09.295Z,8.41
2022-10-05T21:24:37.814Z,8.42
2022-10-05T21:27:05.113Z,8.45
2022-10-05T21:29:33.509Z,8.43
2022-10-05T21:32:00.446Z,8.40
2022-10-05T21:34:28.607Z,8.37
2022-10-05T21:36:55.247Z,8.36
2022-10-05T21:39:22.030Z,8.36
2022-10-05T21:41:49.790Z,8.37
2022-10-05T21:44:16.762Z,8.30
2022-10-05T21:46:43.672Z,8.32
2022-10-05T21:49:13.335Z,8.26
2022-10-05T21:51:41.826Z,8.19
2022-10-05T21:54:17.470Z,8.24
2022-10-05T21:56:48.092Z,8.21
2022-10-05T21:59:18.875Z,8.25
2022-10-05T22:01:46.003Z,8.19
2022-10-05T22:04:12.581Z,8.24
2022-10-05T22:06:40.330Z,8.24
2022-10-05T22:09:07.983Z,8.26
2022-10-05T22:11:34.607Z,8.25
2022-10-05T22:14:04.548Z,7.98
2022-10-05T22:16:35.326Z,8.30
2022-10-05T22:19:07.585Z,8.24
2022-10-05T22:21:41.497Z,8.24
2022-10-05T22:24:10.499Z,8.28
2022-10-05T22:26:37.557Z,8.22
2022-10-05T22:29:04.381Z,8.15
2022-10-05T22:31:31.072Z,8.32
2022-10-05T22:33:57.671Z,8.13
2022-10-05T22:36:24.589Z,8.33
2022-10-05T22:38:51.255Z,8.28
2022-10-05T22:41:20.550Z,8.25
2022-10-05T22:43:50.099Z,8.22
2022-10-05T22:46:17.104Z,8.17
2022-10-05T22:48:43.752Z,8.04
2022-10-05T22:51:10.461Z,8.16
2022-10-05T22:53:37.670Z,8.16
2022-10-05T22:56:09.240Z,8.15
2022-10-05T22:58:36.672Z,8.14
2022-10-05T23:01:06.632Z,8.10
2022-10-05T23:03:33.840Z,8.10
2022-10-05T23:06:04.387Z,8.15
2022-10-05T23:08:32.411Z,8.16
2022-10-05T23:11:06.975Z,8.12
2022-10-05T23:13:33.835Z,8.15
2022-10-05T23:16:13.289Z,8.10
2022-10-05T23:18:40.388Z,8.04
2022-10-05T23:21:08.609Z,8.06
2022-10-05T23:23:39.978Z,8.14
2022-10-05T23:26:09.720Z,8.12
2022-10-05T23:28:38.503Z,8.18
2022-10-05T23:31:08.035Z,8.17
2022-10-05T23:33:35.566Z,8.20
2022-10-05T23:36:08.313Z,8.16
2022-10-05T23:38:35.631Z,8.25
2022-10-05T23:41:02.948Z,8.22
2022-10-05T23:43:29.819Z,8.24
2022-10-05T23:45:56.571Z,8.20
2022-10-05T23:48:23.363Z,8.17
2022-10-05T23:50:50.495Z,8.19
2022-10-05T23:53:18.256Z,8.14
2022-10-05T23:55:45.227Z,8.14
2022-10-05T23:58:12.365Z,8.18
